logo dgac
Jueves 19 de Octubre del 2017
Buscar por aerodromo o helipuerto
Ingrese nombre de aeródromo, localidad o designador OACI:
METAR del 19-10-2017 a las 16:00 UTC
METAR SCVM 191600Z 32009KT CAVOK 20/13 Q1013
Viento: dirección 320 grados, velocidad 9 nudos
Visibilidad: 10 km o más,
    sin nubes bajo los 5.000 pies o bajo del MSA (Mínimo de Seguridad del Aeródromo),
    sin cumulonimbus, y sin fenómenos de tiempo significativo en el aeródromo o alrededores
Temperatura: 20 °C
Rocío: 13 °C
Humedad_relativa: 64%
Presión: 1013 hPa
METAR del 19-10-2017 a las 16:00 UTC
METAR SCVM 191600Z 32009KT CAVOK 20/13 Q1013
Viento: dirección 320 grados, velocidad 9 nudos
Visibilidad: 10 km o más,
    sin nubes bajo los 5.000 pies o bajo del MSA (Mínimo de Seguridad del Aeródromo),
    sin cumulonimbus, y sin fenómenos de tiempo significativo en el aeródromo o alrededores
Temperatura: 20 °C
Rocío: 13 °C
Humedad_relativa: 64%
Presión: 1013 hPa
METAR del 19-10-2017 a las 15:00 UTC
METAR SCVM 191500Z 34008KT CAVOK 19/13 Q1014
Viento: dirección 340 grados, velocidad 8 nudos
Visibilidad: 10 km o más,
    sin nubes bajo los 5.000 pies o bajo del MSA (Mínimo de Seguridad del Aeródromo),
    sin cumulonimbus, y sin fenómenos de tiempo significativo en el aeródromo o alrededores
Temperatura: 19 °C
Rocío: 13 °C
Humedad_relativa: 68%
Presión: 1014 hPa
METAR del 19-10-2017 a las 14:00 UTC
METAR SCVM 191400Z 33006KT CAVOK 18/13 Q1014
Viento: dirección 330 grados, velocidad 6 nudos
Visibilidad: 10 km o más,
    sin nubes bajo los 5.000 pies o bajo del MSA (Mínimo de Seguridad del Aeródromo),
    sin cumulonimbus, y sin fenómenos de tiempo significativo en el aeródromo o alrededores
Temperatura: 18 °C
Rocío: 13 °C
Humedad_relativa: 73%
Presión: 1014 hPa
METAR del 19-10-2017 a las 14:00 UTC
METAR SCVM 191400Z 33006KT CAVOK 18/13 Q1014
Viento: dirección 330 grados, velocidad 6 nudos
Visibilidad: 10 km o más,
    sin nubes bajo los 5.000 pies o bajo del MSA (Mínimo de Seguridad del Aeródromo),
    sin cumulonimbus, y sin fenómenos de tiempo significativo en el aeródromo o alrededores
Temperatura: 18 °C
Rocío: 13 °C
Humedad_relativa: 73%
Presión: 1014 hPa
METAR del 19-10-2017 a las 13:00 UTC
METAR SCVM 191300Z 07004KT CAVOK 17/12 Q1014
Viento: dirección 070 grados, velocidad 4 nudos
Visibilidad: 10 km o más,
    sin nubes bajo los 5.000 pies o bajo del MSA (Mínimo de Seguridad del Aeródromo),
    sin cumulonimbus, y sin fenómenos de tiempo significativo en el aeródromo o alrededores
Temperatura: 17 °C
Rocío: 12 °C
Humedad_relativa: 72%
Presión: 1014 hPa
METAR del 19-10-2017 a las 12:00 UTC
METAR SCVM 191200Z 00000KT CAVOK 13/11 Q1015
Visibilidad: 10 km o más,
    sin nubes bajo los 5.000 pies o bajo del MSA (Mínimo de Seguridad del Aeródromo),
    sin cumulonimbus, y sin fenómenos de tiempo significativo en el aeródromo o alrededores
Temperatura: 13 °C
Rocío: 11 °C
Humedad_relativa: 88%
Presión: 1015 hPa
METAR del 19-10-2017 a las 11:00 UTC
METAR SCVM 191100Z 00000KT CAVOK 10/09 Q1015
Visibilidad: 10 km o más,
    sin nubes bajo los 5.000 pies o bajo del MSA (Mínimo de Seguridad del Aeródromo),
    sin cumulonimbus, y sin fenómenos de tiempo significativo en el aeródromo o alrededores
Temperatura: 10 °C
Rocío: 9 °C
Humedad_relativa: 94%
Presión: 1015 hPa
METAR del 19-10-2017 a las 11:00 UTC
METAR SCVM 191100Z 00000KT CAVOK 10/09 Q1015
Visibilidad: 10 km o más,
    sin nubes bajo los 5.000 pies o bajo del MSA (Mínimo de Seguridad del Aeródromo),
    sin cumulonimbus, y sin fenómenos de tiempo significativo en el aeródromo o alrededores
Temperatura: 10 °C
Rocío: 9 °C
Humedad_relativa: 94%
Presión: 1015 hPa
METAR del 19-10-2017 a las 11:00 UTC
METAR SCVM 191100Z 00000KT CAVOK 10/09 Q1015
Visibilidad: 10 km o más,
    sin nubes bajo los 5.000 pies o bajo del MSA (Mínimo de Seguridad del Aeródromo),
    sin cumulonimbus, y sin fenómenos de tiempo significativo en el aeródromo o alrededores
Temperatura: 10 °C
Rocío: 9 °C
Humedad_relativa: 94%
Presión: 1015 hPa